METAR Data
IDs: Format: Raw Decoded Include TAF

Data at: 0624 UTC 24 Sep 2018

KMCW 240553Z AUTO 15009KT 10SM CLR 14/11 A2999 RMK AO2 SLP148 T01390111 10206 20128 402440061 58004
KMCW 240453Z AUTO 14006KT 10SM CLR 13/11 A3000 RMK AO2 SLP152 T01330106
KMCW 240353Z AUTO 14008KT 10SM CLR 14/11 A3000 RMK AO2 SLP153 T01390106
KMCW 240253Z AUTO 14009KT 10SM CLR 15/11 A3001 RMK AO2 SLP155 T01500111 51006
KMCW 240153Z AUTO 15009KT 10SM CLR 16/11 A3000 RMK AO2 SLP156 T01610111
KMCW 240053Z AUTO 14008KT 10SM CLR 17/12 A3000 RMK AO2 SLP153 T01720117
KMCW 232353Z AUTO 16009KT 10SM CLR 21/11 A2999 RMK AO2 SLP149 T02060111 10244 20206 55002
KMCW 232253Z AUTO 16014G20KT 10SM CLR 23/11 A2998 RMK AO2 SLP148 T02280111
KMCW 232153Z AUTO 17015G24KT 10SM CLR 24/11 A2999 RMK AO2 SLP149 T02390111
KMCW 232053Z AUTO 16015KT 10SM CLR 24/12 A2999 RMK AO2 SLP150 T02440117 56025
KMCW 231953Z AUTO 16015G22KT 10SM CLR 24/12 A3001 RMK AO2 SLP157 T02390117
KMCW 231853Z AUTO 15010KT 10SM CLR 24/12 A3004 RMK AO2 SLP167 T02390122
KMCW 231753Z AUTO 15014G21KT 10SM CLR 23/12 A3007 RMK AO2 SLP177 T02280117 10228 20061 58012
KMCW 231653Z AUTO 20013KT 10SM CLR 22/13 A3009 RMK AO2 SLP184 T02170128
KMCW 231553Z AUTO 18013KT 10SM CLR 19/13 A3010 RMK AO2 SLP188 T01940128
KMCW 231453Z AUTO 17010KT 10SM CLR 16/13 A3011 RMK AO2 SLP190 T01610128 51002
KMCW 231353Z AUTO 17008KT 10SM CLR 12/11 A3010 RMK AO2 SLP191 T01220111
KMCW 231253Z AUTO 17005KT 10SM CLR 09/09 A3011 RMK AO2 SLP194 T00890089
KMCW 231153Z AUTO 18005KT 10SM CLR 07/07 A3010 RMK AO2 SLP191 T00720072 10083 20067 55002
KMCW 231053Z AUTO 17005KT 10SM CLR 07/07 A3010 RMK AO2 SLP188 T00720072
KMCW 230953Z AUTO 17006KT 10SM CLR 07/07 A3010 RMK AO2 SLP188 T00720072
KMCW 230853Z AUTO 18005KT 10SM CLR 07/07 A3011 RMK AO2 SLP192 T00720072 55003
KMCW 230753Z AUTO 15004KT 10SM CLR 08/08 A3011 RMK AO2 SLP191 T00780078
KMCW 230653Z AUTO 15003KT 10SM CLR 08/08 A3012 RMK AO2 SLP195 T00780078
KMCW 230553Z AUTO 16006KT 10SM CLR 08/08 A3012 RMK AO2 SLP197 T00780078 10161 20072 401940028 50001
KMCW 230453Z AUTO 18003KT 10SM CLR 09/08 A3013 RMK AO2 SLP201 T00890083
KMCW 230353Z AUTO 18006KT 10SM CLR 11/08 A3013 RMK AO2 SLP199 T01060083
KMCW 230253Z AUTO 15007KT 10SM CLR 12/08 A3012 RMK AO2 SLP197 T01170083 58003
KMCW 230153Z AUTO 15006KT 10SM CLR 12/08 A3012 RMK AO2 SLP200 T01170083
KMCW 230053Z AUTO 16008KT 10SM CLR 13/08 A3013 RMK AO2 SLP201 T01280083
KMCW 222353Z AUTO 16008KT 10SM CLR 16/08 A3013 RMK AO2 SLP200 T01610083 10194 20161 56014
KMCW 222253Z AUTO 18009KT 10SM CLR 18/09 A3013 RMK AO2 SLP203 T01830089
KMCW 222153Z AUTO 18009KT 10SM CLR 19/09 A3015 RMK AO2 SLP206 T01890089
KMCW 222053Z AUTO 18009KT 10SM CLR 19/09 A3017 RMK AO2 SLP214 T01890094 58028
KMCW 221953Z AUTO 17007G16KT 10SM CLR 18/08 A3020 RMK AO2 SLP225 T01830083
KMCW 221853Z AUTO 17008KT 10SM CLR 18/09 A3023 RMK AO2 SLP236 T01780089